createdAt,value
2022-10-31T00:01:37.598Z,100367.19
2022-10-31T00:04:25.682Z,100366.06
2022-10-31T00:07:13.797Z,100369.19
2022-10-31T00:10:01.817Z,100381.41
2022-10-31T00:12:49.842Z,100371.06
2022-10-31T00:15:41.515Z,100376.59
2022-10-31T00:18:29.675Z,100380.84
2022-10-31T00:21:17.734Z,100388.50
2022-10-31T00:24:06.516Z,100383.06
2022-10-31T00:26:54.416Z,100380.50
2022-10-31T00:29:42.449Z,100383.50
2022-10-31T00:32:31.481Z,100383.59
2022-10-31T00:35:19.261Z,100389.47
2022-10-31T00:38:07.360Z,100401.38
2022-10-31T00:40:55.541Z,100389.81
2022-10-31T00:43:44.529Z,100393.59
2022-10-31T00:46:32.674Z,100392.91
2022-10-31T00:49:20.657Z,100397.94
2022-10-31T00:52:08.854Z,100392.91
2022-10-31T00:54:56.893Z,100389.81
2022-10-31T00:57:48.787Z,100390.28
2022-10-31T01:00:36.633Z,100388.06
2022-10-31T01:03:27.925Z,100384.16
2022-10-31T01:06:17.043Z,100399.34
2022-10-31T01:09:05.239Z,100396.59
2022-10-31T01:11:53.310Z,100391.50
2022-10-31T01:14:47.250Z,100383.72
2022-10-31T01:17:35.891Z,100390.03
2022-10-31T01:20:23.813Z,100399.69
2022-10-31T01:23:11.942Z,100398.03
2022-10-31T01:26:07.602Z,100393.16
2022-10-31T01:28:59.286Z,100390.03
2022-10-31T01:31:47.321Z,100389.03
2022-10-31T01:34:35.956Z,100391.16
2022-10-31T01:37:24.102Z,100386.94
2022-10-31T01:40:12.166Z,100381.28
2022-10-31T01:43:00.411Z,100373.75
2022-10-31T01:45:55.203Z,100373.31
2022-10-31T01:48:43.547Z,100375.72
2022-10-31T01:51:36.896Z,100378.38
2022-10-31T01:54:38.920Z,100378.25
2022-10-31T01:57:27.711Z,100379.47
2022-10-31T02:00:16.322Z,100379.06
2022-10-31T02:03:04.632Z,100388.72
2022-10-31T02:05:56.080Z,100383.59
2022-10-31T02:08:44.848Z,100383.69
2022-10-31T02:11:34.402Z,100378.69
2022-10-31T02:14:29.385Z,100387.69
2022-10-31T02:17:17.669Z,100374.25
2022-10-31T02:20:17.107Z,100372.75
2022-10-31T02:23:33.509Z,100368.34
2022-10-31T02:26:39.197Z,100370.13
2022-10-31T02:29:51.278Z,100383.75
2022-10-31T02:33:05.587Z,100389.41
2022-10-31T02:36:25.854Z,100382.91
2022-10-31T02:39:21.890Z,100387.16
2022-10-31T02:42:41.063Z,100383.50
2022-10-31T02:46:03.525Z,100379.06
2022-10-31T02:48:56.459Z,100383.94
2022-10-31T02:51:45.251Z,100390.28
2022-10-31T02:54:33.572Z,100382.50
2022-10-31T02:57:33.484Z,100381.50
2022-10-31T03:00:21.688Z,100385.16
2022-10-31T03:03:46.123Z,100388.47
2022-10-31T03:06:58.120Z,100387.81
2022-10-31T03:09:57.381Z,100378.03
2022-10-31T03:13:10.810Z,100373.50
2022-10-31T03:16:25.109Z,100371.28
2022-10-31T03:19:20.738Z,100372.13
2022-10-31T03:22:18.199Z,100372.84
2022-10-31T03:25:07.188Z,100366.53
2022-10-31T03:27:56.333Z,100364.63
2022-10-31T03:30:46.721Z,100375.22
2022-10-31T03:33:40.140Z,100377.63
2022-10-31T03:36:31.174Z,100369.50
2022-10-31T03:39:22.249Z,100364.97
2022-10-31T03:42:19.799Z,100368.84
2022-10-31T03:45:14.291Z,100368.28
2022-10-31T03:48:02.945Z,100372.03
2022-10-31T03:51:17.576Z,100359.63
2022-10-31T03:54:47.656Z,100366.75
2022-10-31T03:57:47.047Z,100359.63
2022-10-31T04:00:41.985Z,100365.84
2022-10-31T04:03:37.224Z,100358.94
2022-10-31T04:06:26.341Z,100357.63
2022-10-31T04:09:15.267Z,100362.09
2022-10-31T04:12:09.970Z,100354.53
2022-10-31T04:14:58.637Z,100356.44
2022-10-31T04:17:50.737Z,100349.00
2022-10-31T04:20:41.905Z,100355.97
2022-10-31T04:23:30.652Z,100359.06
2022-10-31T04:26:18.620Z,100359.72
2022-10-31T04:29:06.628Z,100367.72
2022-10-31T04:31:54.635Z,100364.31
2022-10-31T04:34:42.622Z,100371.78
2022-10-31T04:37:30.684Z,100370.72
2022-10-31T04:40:18.755Z,100380.53
2022-10-31T04:43:06.689Z,100379.19
2022-10-31T04:45:55.018Z,100385.97
2022-10-31T04:48:43.338Z,100394.88
2022-10-31T04:51:33.841Z,100391.94
2022-10-31T04:54:21.879Z,100392.94
2022-10-31T04:57:12.898Z,100382.03
2022-10-31T05:00:00.933Z,100389.59
2022-10-31T05:02:57.579Z,100382.75
2022-10-31T05:05:46.004Z,100383.19
2022-10-31T05:08:34.096Z,100376.13
2022-10-31T05:11:22.105Z,100379.31
2022-10-31T05:14:10.099Z,100374.72
2022-10-31T05:16:58.109Z,100372.38
2022-10-31T05:19:46.254Z,100365.19
2022-10-31T05:22:34.288Z,100357.53
2022-10-31T05:25:27.816Z,100369.69
2022-10-31T05:28:15.756Z,100366.25
2022-10-31T05:31:04.114Z,100356.97
2022-10-31T05:33:52.450Z,100356.88
2022-10-31T05:36:40.434Z,100354.50
2022-10-31T05:39:28.436Z,100356.09
2022-10-31T05:42:16.334Z,100352.41
2022-10-31T05:45:04.906Z,100362.72
2022-10-31T05:48:01.740Z,100368.09
2022-10-31T05:50:51.054Z,100356.59
2022-10-31T05:53:39.229Z,100349.16
2022-10-31T05:56:27.253Z,100348.84
2022-10-31T05:59:15.186Z,100346.44
2022-10-31T06:02:03.146Z,100348.66
2022-10-31T06:40:25.564Z,100349.97
2022-10-31T08:24:12.726Z,100368.69
2022-10-31T08:46:31.857Z,100365.91
2022-10-31T08:55:32.867Z,100357.09
2022-10-31T08:59:02.356Z,100345.84
2022-10-31T09:55:50.822Z,100323.25
2022-10-31T12:07:34.990Z,100169.31
2022-10-31T12:32:24.550Z,100156.16
2022-10-31T13:52:59.242Z,100035.53
2022-10-31T13:56:15.802Z,100015.00
2022-10-31T13:59:34.454Z,100025.41
2022-10-31T14:02:45.798Z,100016.75
2022-10-31T14:05:56.437Z,100015.38
2022-10-31T14:08:56.331Z,100012.00
2022-10-31T14:12:40.593Z,100009.97
2022-10-31T14:15:41.691Z,99990.41
2022-10-31T14:20:25.844Z,99996.63
2022-10-31T14:23:58.223Z,99984.28
2022-10-31T14:41:16.542Z,99967.06
2022-10-31T14:45:13.116Z,99970.88
2022-10-31T14:51:14.181Z,100013.69
2022-10-31T14:54:19.071Z,99989.50
2022-10-31T14:57:59.510Z,99980.09
2022-10-31T15:01:19.639Z,99977.09
2022-10-31T15:04:37.533Z,99979.69
2022-10-31T15:07:32.429Z,99989.19
2022-10-31T15:10:43.498Z,99991.81
2022-10-31T15:13:40.145Z,99990.56
2022-10-31T15:28:35.677Z,99966.41
2022-10-31T15:32:20.259Z,99963.03
2022-10-31T15:35:27.162Z,99967.00
2022-10-31T15:41:33.093Z,99956.19
2022-10-31T15:44:31.738Z,99965.91
2022-10-31T15:47:34.094Z,99959.53
2022-10-31T15:50:48.054Z,99949.66
2022-10-31T15:53:50.617Z,99946.28
2022-10-31T15:56:39.431Z,99961.84
2022-10-31T15:59:58.603Z,99941.06
2022-10-31T16:02:46.851Z,99945.69
2022-10-31T16:31:35.380Z,99854.91
2022-10-31T16:34:33.700Z,99818.59
2022-10-31T16:37:37.059Z,99820.88
2022-10-31T16:40:26.473Z,99818.59
2022-10-31T16:43:22.105Z,99834.25
2022-10-31T16:46:38.331Z,99852.13
2022-10-31T16:49:33.315Z,99833.06
2022-10-31T16:52:21.659Z,99839.34
2022-10-31T17:03:53.498Z,99812.66
2022-10-31T17:11:22.734Z,99820.13
2022-10-31T17:14:19.280Z,99864.28
2022-10-31T17:17:09.290Z,99859.16
2022-10-31T17:20:04.500Z,99853.41
2022-10-31T17:23:24.246Z,99856.66
2022-10-31T17:26:17.702Z,99864.72
2022-10-31T17:29:19.047Z,99862.56
2022-10-31T17:32:17.743Z,99868.97
2022-10-31T17:37:49.260Z,99865.66
2022-10-31T17:40:42.843Z,99873.28
2022-10-31T17:44:07.339Z,99889.59
2022-10-31T17:47:04.729Z,99879.59
2022-10-31T17:49:55.791Z,99883.41
2022-10-31T18:02:48.041Z,99849.38
2022-10-31T18:05:39.746Z,99842.84
2022-10-31T18:08:36.640Z,99845.53
2022-10-31T18:11:29.123Z,99846.81
2022-10-31T18:15:08.385Z,99830.72
2022-10-31T18:46:24.395Z,99804.13
2022-10-31T18:49:24.294Z,99798.94
2022-10-31T18:52:51.999Z,99789.16
2022-10-31T18:55:50.221Z,99780.63
2022-10-31T18:58:45.746Z,99801.75
2022-10-31T19:01:49.715Z,99793.09
2022-10-31T19:07:36.110Z,99814.41
2022-10-31T19:10:47.395Z,99821.59
2022-10-31T19:14:17.776Z,99831.16
2022-10-31T19:17:10.860Z,99826.97
2022-10-31T19:20:26.121Z,99820.97
2022-10-31T19:23:18.250Z,99832.31
2022-10-31T19:29:50.191Z,99822.38
2022-10-31T19:36:14.861Z,99834.38
2022-10-31T19:39:15.712Z,99834.16
2022-10-31T19:42:12.333Z,99839.34
2022-10-31T19:45:10.345Z,99833.59
2022-10-31T19:48:18.449Z,99821.44
2022-10-31T19:51:25.575Z,99826.41
2022-10-31T19:54:13.983Z,99822.59
2022-10-31T19:57:06.466Z,99825.09
2022-10-31T20:00:08.276Z,99818.03
2022-10-31T20:03:06.970Z,99819.69
2022-10-31T20:06:07.704Z,99822.47
2022-10-31T20:09:07.607Z,99817.03
2022-10-31T20:12:02.935Z,99838.38
2022-10-31T20:14:56.699Z,99838.13
2022-10-31T20:17:51.062Z,99823.72
2022-10-31T20:21:03.683Z,99830.56
2022-10-31T20:24:16.048Z,99818.09
2022-10-31T20:27:11.258Z,99844.94
2022-10-31T20:30:04.251Z,99831.72
2022-10-31T20:32:54.985Z,99834.75
2022-10-31T20:35:44.226Z,99833.38
2022-10-31T20:38:39.072Z,99832.41
2022-10-31T20:41:29.615Z,99825.25
2022-10-31T20:44:26.693Z,99830.41
2022-10-31T20:47:20.671Z,99824.75
2022-10-31T20:50:17.262Z,99816.91
2022-10-31T20:53:20.114Z,99812.78
2022-10-31T20:56:19.640Z,99806.34
2022-10-31T20:59:15.367Z,99808.25
2022-10-31T21:02:10.189Z,99808.88
2022-10-31T21:04:58.632Z,99822.34
2022-10-31T21:07:47.779Z,99825.13
2022-10-31T21:10:36.662Z,99814.28
2022-10-31T21:13:32.518Z,99821.03
2022-10-31T21:16:31.143Z,99806.72
2022-10-31T21:19:31.577Z,99810.00
2022-10-31T21:22:19.852Z,99811.41
2022-10-31T21:25:08.856Z,99807.44
2022-10-31T21:28:00.645Z,99818.25
2022-10-31T21:30:51.996Z,99830.47
2022-10-31T21:33:44.188Z,99826.91
2022-10-31T21:36:36.912Z,99808.19
2022-10-31T21:39:25.315Z,99812.13
2022-10-31T21:42:18.934Z,99817.22
2022-10-31T21:45:12.278Z,99824.34
2022-10-31T21:48:03.106Z,99821.72
2022-10-31T21:50:51.067Z,99823.56
2022-10-31T21:54:01.306Z,99820.50
2022-10-31T21:56:49.822Z,99821.28
2022-10-31T21:59:45.871Z,99823.47
2022-10-31T22:02:43.340Z,99809.44
2022-10-31T22:05:31.782Z,99819.16
2022-10-31T22:08:20.029Z,99804.81
2022-10-31T22:11:13.884Z,99797.72
2022-10-31T22:14:03.817Z,99802.06
2022-10-31T22:16:52.009Z,99801.09
2022-10-31T22:19:40.233Z,99806.03
2022-10-31T22:22:28.238Z,99799.09
2022-10-31T22:25:16.299Z,99784.09
2022-10-31T22:28:08.111Z,99791.81
2022-10-31T22:30:58.680Z,99795.84
2022-10-31T22:33:48.137Z,99801.44
2022-10-31T22:36:37.912Z,99780.28
2022-10-31T22:39:25.921Z,99790.63
2022-10-31T22:42:14.023Z,99790.00
2022-10-31T22:45:02.909Z,99792.94
2022-10-31T22:47:51.419Z,99802.50
2022-10-31T22:50:39.636Z,99807.78
2022-10-31T22:53:27.903Z,99808.41
2022-10-31T22:56:20.579Z,99791.88
2022-10-31T22:59:12.387Z,99795.53
2022-10-31T23:02:00.752Z,99801.28
2022-10-31T23:04:49.039Z,99792.59
2022-10-31T23:07:37.162Z,99787.47
2022-10-31T23:10:33.428Z,99769.22
2022-10-31T23:13:43.002Z,99780.94
2022-10-31T23:16:31.340Z,99777.50
2022-10-31T23:19:33.323Z,99776.16
2022-10-31T23:22:24.523Z,99779.22
2022-10-31T23:25:12.632Z,99768.72
2022-10-31T23:28:00.761Z,99760.28
2022-10-31T23:30:49.113Z,99769.16
2022-10-31T23:33:37.257Z,99779.44
2022-10-31T23:36:28.464Z,99766.25
2022-10-31T23:39:19.916Z,99767.31
2022-10-31T23:42:11.156Z,99781.16
2022-10-31T23:44:59.301Z,99781.44
2022-10-31T23:47:47.596Z,99790.22
2022-10-31T23:50:37.121Z,99795.19
2022-10-31T23:53:25.249Z,99799.78
2022-10-31T23:56:14.465Z,99796.94
2022-10-31T23:59:03.006Z,99794.28
